sensor_id;sensor_type;location;lat;lon;timestamp;pressure;altitude;pressure_sealevel;temperature;humidity
11523;BME280;40093;43.224;27.910;2023-02-17T00:01:13;101304.91;;;5.65;88.43
11523;BME280;40093;43.224;27.910;2023-02-17T00:03:40;101295.91;;;5.73;88.10
11523;BME280;40093;43.224;27.910;2023-02-17T00:06:10;101301.72;;;5.80;87.95
11523;BME280;40093;43.224;27.910;2023-02-17T00:08:37;101298.81;;;5.85;87.54
11523;BME280;40093;43.224;27.910;2023-02-17T00:11:04;101301.03;;;5.92;87.09
11523;BME280;40093;43.224;27.910;2023-02-17T00:13:31;101293.78;;;5.96;87.37
11523;BME280;40093;43.224;27.910;2023-02-17T00:15:58;101291.19;;;5.99;86.62
11523;BME280;40093;43.224;27.910;2023-02-17T00:18:25;101289.28;;;6.00;86.48
11523;BME280;40093;43.224;27.910;2023-02-17T00:20:52;101284.47;;;5.97;85.88
11523;BME280;40093;43.224;27.910;2023-02-17T00:23:20;101284.81;;;5.78;86.17
11523;BME280;40093;43.224;27.910;2023-02-17T00:25:47;101279.53;;;5.73;86.98
11523;BME280;40093;43.224;27.910;2023-02-17T00:28:14;101282.41;;;5.68;88.05
11523;BME280;40093;43.224;27.910;2023-02-17T00:30:41;101270.03;;;5.71;88.78
11523;BME280;40093;43.224;27.910;2023-02-17T00:33:08;101272.00;;;5.79;88.60
11523;BME280;40093;43.224;27.910;2023-02-17T00:35:38;101261.22;;;5.82;88.25
11523;BME280;40093;43.224;27.910;2023-02-17T00:38:05;101264.59;;;5.88;88.70
11523;BME280;40093;43.224;27.910;2023-02-17T00:40:34;101259.41;;;5.95;88.26
11523;BME280;40093;43.224;27.910;2023-02-17T00:43:00;101255.38;;;6.01;88.02
11523;BME280;40093;43.224;27.910;2023-02-17T00:45:27;101260.53;;;6.02;87.68
11523;BME280;40093;43.224;27.910;2023-02-17T00:47:54;101250.53;;;6.06;87.77
11523;BME280;40093;43.224;27.910;2023-02-17T00:50:21;101252.13;;;6.07;87.53
11523;BME280;40093;43.224;27.910;2023-02-17T00:52:48;101242.69;;;5.96;87.59
11523;BME280;40093;43.224;27.910;2023-02-17T00:55:15;101238.66;;;6.02;88.09
11523;BME280;40093;43.224;27.910;2023-02-17T00:57:43;101234.81;;;6.03;87.91
11523;BME280;40093;43.224;27.910;2023-02-17T01:00:11;101236.19;;;6.09;87.83
11523;BME280;40093;43.224;27.910;2023-02-17T01:02:38;101231.09;;;6.08;88.39
11523;BME280;40093;43.224;27.910;2023-02-17T01:05:06;101230.75;;;6.09;88.53
11523;BME280;40093;43.224;27.910;2023-02-17T01:07:33;101231.50;;;6.18;88.64
11523;BME280;40093;43.224;27.910;2023-02-17T01:10:01;101232.16;;;6.15;88.87
11523;BME280;40093;43.224;27.910;2023-02-17T01:12:28;101217.47;;;6.28;88.89
11523;BME280;40093;43.224;27.910;2023-02-17T01:14:57;101222.09;;;6.36;88.38
11523;BME280;40093;43.224;27.910;2023-02-17T01:17:24;101217.09;;;6.38;88.00
11523;BME280;40093;43.224;27.910;2023-02-17T01:19:51;101220.75;;;6.42;88.07
11523;BME280;40093;43.224;27.910;2023-02-17T01:22:17;101202.97;;;6.36;88.04
11523;BME280;40093;43.224;27.910;2023-02-17T01:24:44;101214.91;;;6.52;87.91
11523;BME280;40093;43.224;27.910;2023-02-17T01:27:11;101213.91;;;6.57;87.41
11523;BME280;40093;43.224;27.910;2023-02-17T01:29:38;101202.66;;;6.58;87.21
11523;BME280;40093;43.224;27.910;2023-02-17T01:32:06;101201.06;;;6.57;87.21
11523;BME280;40093;43.224;27.910;2023-02-17T01:34:33;101198.94;;;6.63;86.84
11523;BME280;40093;43.224;27.910;2023-02-17T01:37:00;101205.53;;;6.62;86.95
11523;BME280;40093;43.224;27.910;2023-02-17T01:39:26;101189.22;;;6.65;86.65
11523;BME280;40093;43.224;27.910;2023-02-17T01:41:53;101194.19;;;6.72;86.61
11523;BME280;40093;43.224;27.910;2023-02-17T01:44:21;101187.59;;;6.73;86.40
11523;BME280;40093;43.224;27.910;2023-02-17T01:46:50;101193.19;;;6.76;86.51
11523;BME280;40093;43.224;27.910;2023-02-17T01:49:24;101196.13;;;6.71;85.93
11523;BME280;40093;43.224;27.910;2023-02-17T01:51:56;101193.69;;;6.49;86.98
11523;BME280;40093;43.224;27.910;2023-02-17T01:54:29;101189.44;;;6.40;86.57
11523;BME280;40093;43.224;27.910;2023-02-17T01:57:00;101188.53;;;6.27;86.72
11523;BME280;40093;43.224;27.910;2023-02-17T01:59:28;101190.81;;;6.17;87.16
11523;BME280;40093;43.224;27.910;2023-02-17T02:01:57;101190.56;;;6.10;87.37
11523;BME280;40093;43.224;27.910;2023-02-17T02:04:29;101184.28;;;6.09;87.93
11523;BME280;40093;43.224;27.910;2023-02-17T02:06:58;101190.81;;;6.17;87.60
11523;BME280;40093;43.224;27.910;2023-02-17T02:09:27;101183.91;;;6.19;87.79
11523;BME280;40093;43.224;27.910;2023-02-17T02:11:56;101177.78;;;6.22;87.85
11523;BME280;40093;43.224;27.910;2023-02-17T02:14:24;101176.78;;;6.27;88.42
11523;BME280;40093;43.224;27.910;2023-02-17T02:16:59;101179.00;;;6.33;88.93
11523;BME280;40093;43.224;27.910;2023-02-17T02:23:05;101176.19;;;6.21;89.27
11523;BME280;40093;43.224;27.910;2023-02-17T02:25:59;101166.47;;;6.32;89.17
11523;BME280;40093;43.224;27.910;2023-02-17T02:28:46;101168.41;;;6.32;89.30
11523;BME280;40093;43.224;27.910;2023-02-17T02:31:28;101165.16;;;6.38;89.15
11523;BME280;40093;43.224;27.910;2023-02-17T02:34:03;101164.75;;;6.48;88.38
11523;BME280;40093;43.224;27.910;2023-02-17T02:36:35;101171.28;;;6.56;87.89
11523;BME280;40093;43.224;27.910;2023-02-17T02:39:06;101154.34;;;6.62;87.72
11523;BME280;40093;43.224;27.910;2023-02-17T02:41:37;101174.84;;;6.56;87.19
11523;BME280;40093;43.224;27.910;2023-02-17T02:44:06;101173.25;;;6.55;87.15
11523;BME280;40093;43.224;27.910;2023-02-17T02:46:34;101162.09;;;6.60;86.88
11523;BME280;40093;43.224;27.910;2023-02-17T02:49:03;101149.50;;;6.47;85.82
11523;BME280;40093;43.224;27.910;2023-02-17T02:51:38;101170.91;;;6.45;85.93
11523;BME280;40093;43.224;27.910;2023-02-17T02:54:31;101168.06;;;6.33;86.06
11523;BME280;40093;43.224;27.910;2023-02-17T02:57:16;101167.72;;;6.14;86.29
11523;BME280;40093;43.224;27.910;2023-02-17T02:59:52;101167.72;;;6.14;87.36
11523;BME280;40093;43.224;27.910;2023-02-17T03:02:28;101169.78;;;6.17;87.53
11523;BME280;40093;43.224;27.910;2023-02-17T03:05:03;101174.25;;;6.22;87.49
11523;BME280;40093;43.224;27.910;2023-02-17T03:07:34;101167.34;;;6.24;86.78
11523;BME280;40093;43.224;27.910;2023-02-17T03:10:04;101171.66;;;6.25;86.89
11523;BME280;40093;43.224;27.910;2023-02-17T03:12:31;101173.75;;;6.28;86.71
11523;BME280;40093;43.224;27.910;2023-02-17T03:15:01;101169.72;;;6.26;86.82
11523;BME280;40093;43.224;27.910;2023-02-17T03:17:30;101173.75;;;6.28;86.51
11523;BME280;40093;43.224;27.910;2023-02-17T03:19:59;101178.75;;;6.26;86.26
11523;BME280;40093;43.224;27.910;2023-02-17T03:22:31;101173.78;;;6.20;86.05
11523;BME280;40093;43.224;27.910;2023-02-17T03:24:59;101175.56;;;6.16;86.28
11523;BME280;40093;43.224;27.910;2023-02-17T03:27:26;101173.34;;;6.09;85.75
11523;BME280;40093;43.224;27.910;2023-02-17T03:29:53;101174.53;;;6.00;85.54
11523;BME280;40093;43.224;27.910;2023-02-17T03:32:20;101174.41;;;5.96;86.13
11523;BME280;40093;43.224;27.910;2023-02-17T03:34:47;101186.81;;;5.85;85.96
11523;BME280;40093;43.224;27.910;2023-02-17T03:37:15;101176.09;;;5.80;86.20
11523;BME280;40093;43.224;27.910;2023-02-17T03:39:42;101177.03;;;5.76;86.63
11523;BME280;40093;43.224;27.910;2023-02-17T03:42:09;101173.03;;;5.73;86.37
11523;BME280;40093;43.224;27.910;2023-02-17T03:44:36;101168.69;;;5.72;86.51
11523;BME280;40093;43.224;27.910;2023-02-17T03:47:03;101185.72;;;5.69;87.07
11523;BME280;40093;43.224;27.910;2023-02-17T03:49:30;101180.91;;;5.66;86.67
11523;BME280;40093;43.224;27.910;2023-02-17T03:51:57;101171.63;;;5.59;86.77
11523;BME280;40093;43.224;27.910;2023-02-17T03:54:25;101166.34;;;5.54;87.49
11523;BME280;40093;43.224;27.910;2023-02-17T03:56:52;101166.19;;;5.50;87.28
11523;BME280;40093;43.224;27.910;2023-02-17T03:59:19;101165.22;;;5.46;87.26
11523;BME280;40093;43.224;27.910;2023-02-17T04:01:45;101166.56;;;5.40;87.52
11523;BME280;40093;43.224;27.910;2023-02-17T04:04:12;101164.13;;;5.39;87.76
11523;BME280;40093;43.224;27.910;2023-02-17T04:06:39;101166.56;;;5.40;88.39
11523;BME280;40093;43.224;27.910;2023-02-17T04:09:06;101154.03;;;5.39;87.94
11523;BME280;40093;43.224;27.910;2023-02-17T04:11:34;101151.63;;;5.38;88.46
11523;BME280;40093;43.224;27.910;2023-02-17T04:14:01;101142.97;;;5.36;88.33
11523;BME280;40093;43.224;27.910;2023-02-17T04:16:28;101156.13;;;5.34;88.48
11523;BME280;40093;43.224;27.910;2023-02-17T04:18:55;101146.00;;;5.34;88.77
11523;BME280;40093;43.224;27.910;2023-02-17T04:21:22;101144.41;;;5.33;88.68
11523;BME280;40093;43.224;27.910;2023-02-17T04:23:48;101143.28;;;5.34;88.27
11523;BME280;40093;43.224;27.910;2023-02-17T04:26:15;101150.53;;;5.30;88.65
11523;BME280;40093;43.224;27.910;2023-02-17T04:28:44;101144.09;;;5.35;89.08
11523;BME280;40093;43.224;27.910;2023-02-17T04:31:10;101148.06;;;5.37;89.49
11523;BME280;40093;43.224;27.910;2023-02-17T04:33:37;101145.34;;;5.37;89.31
11523;BME280;40093;43.224;27.910;2023-02-17T04:36:05;101145.34;;;5.37;89.62
11523;BME280;40093;43.224;27.910;2023-02-17T04:38:32;101149.88;;;5.33;89.46
11523;BME280;40093;43.224;27.910;2023-02-17T04:40:59;101159.66;;;5.34;90.12
11523;BME280;40093;43.224;27.910;2023-02-17T04:43:27;101159.53;;;5.22;89.48
11523;BME280;40093;43.224;27.910;2023-02-17T04:45:55;101162.91;;;5.19;89.76
11523;BME280;40093;43.224;27.910;2023-02-17T04:48:23;101158.91;;;5.08;90.63
11523;BME280;40093;43.224;27.910;2023-02-17T04:50:51;101165.16;;;5.09;90.99
11523;BME280;40093;43.224;27.910;2023-02-17T04:53:18;101165.78;;;5.14;90.70
11523;BME280;40093;43.224;27.910;2023-02-17T04:55:47;101164.66;;;5.24;90.34
11523;BME280;40093;43.224;27.910;2023-02-17T04:58:15;101154.84;;;5.31;89.96
11523;BME280;40093;43.224;27.910;2023-02-17T05:00:42;101157.72;;;5.35;89.83
11523;BME280;40093;43.224;27.910;2023-02-17T05:03:10;101156.25;;;5.37;89.53
11523;BME280;40093;43.224;27.910;2023-02-17T05:05:37;101174.03;;;5.52;89.53
11523;BME280;40093;43.224;27.910;2023-02-17T05:08:04;101171.16;;;5.57;88.74
11523;BME280;40093;43.224;27.910;2023-02-17T05:10:31;101174.03;;;5.60;88.93
11523;BME280;40093;43.224;27.910;2023-02-17T05:12:58;101174.31;;;5.67;88.23
11523;BME280;40093;43.224;27.910;2023-02-17T05:15:24;101180.56;;;5.76;87.68
11523;BME280;40093;43.224;27.910;2023-02-17T05:17:51;101180.41;;;5.81;87.35
11523;BME280;40093;43.224;27.910;2023-02-17T05:20:20;101180.22;;;5.86;86.66
11523;BME280;40093;43.224;27.910;2023-02-17T05:22:47;101188.41;;;5.86;86.18
11523;BME280;40093;43.224;27.910;2023-02-17T05:25:14;101185.22;;;5.84;86.16
11523;BME280;40093;43.224;27.910;2023-02-17T05:27:41;101186.16;;;5.88;85.96
11523;BME280;40093;43.224;27.910;2023-02-17T05:30:08;101186.78;;;5.94;86.30
11523;BME280;40093;43.224;27.910;2023-02-17T05:32:35;101199.59;;;6.02;86.34
11523;BME280;40093;43.224;27.910;2023-02-17T05:35:02;101198.63;;;6.06;86.07
11523;BME280;40093;43.224;27.910;2023-02-17T05:37:30;101201.28;;;6.23;85.92
11523;BME280;40093;43.224;27.910;2023-02-17T05:39:58;101204.72;;;6.32;85.48
11523;BME280;40093;43.224;27.910;2023-02-17T05:42:25;101195.69;;;6.40;85.60
11523;BME280;40093;43.224;27.910;2023-02-17T05:44:53;101199.47;;;6.56;85.03
11523;BME280;40093;43.224;27.910;2023-02-17T05:47:20;101203.53;;;6.71;84.31
11523;BME280;40093;43.224;27.910;2023-02-17T05:49:49;101209.19;;;6.86;83.75
11523;BME280;40093;43.224;27.910;2023-02-17T05:52:17;101188.50;;;6.97;82.81
11523;BME280;40093;43.224;27.910;2023-02-17T05:54:45;101205.03;;;7.21;81.74
11523;BME280;40093;43.224;27.910;2023-02-17T05:57:12;101201.34;;;7.37;80.94
11523;BME280;40093;43.224;27.910;2023-02-17T05:59:39;101206.97;;;7.53;80.13
11523;BME280;40093;43.224;27.910;2023-02-17T06:02:05;101206.06;;;7.61;79.79
11523;BME280;40093;43.224;27.910;2023-02-17T06:04:32;101206.75;;;7.58;79.73
11523;BME280;40093;43.224;27.910;2023-02-17T06:06:59;101202.94;;;7.38;79.82
11523;BME280;40093;43.224;27.910;2023-02-17T06:09:26;101211.25;;;7.30;80.20
11523;BME280;40093;43.224;27.910;2023-02-17T06:11:54;101204.41;;;7.36;80.47
11523;BME280;40093;43.224;27.910;2023-02-17T06:14:21;101205.53;;;7.35;80.49
11523;BME280;40093;43.224;27.910;2023-02-17T06:16:48;101202.16;;;7.50;80.52
11523;BME280;40093;43.224;27.910;2023-02-17T06:19:15;101203.13;;;7.66;79.58
11523;BME280;40093;43.224;27.910;2023-02-17T06:21:42;101206.22;;;7.76;78.07
11523;BME280;40093;43.224;27.910;2023-02-17T06:24:08;101208.75;;;7.81;78.13
11523;BME280;40093;43.224;27.910;2023-02-17T06:26:35;101210.94;;;8.00;77.68
11523;BME280;40093;43.224;27.910;2023-02-17T06:29:04;101205.44;;;8.00;77.28
11523;BME280;40093;43.224;27.910;2023-02-17T06:31:31;101211.28;;;8.10;76.86
11523;BME280;40093;43.224;27.910;2023-02-17T06:33:58;101204.81;;;8.27;76.37
11523;BME280;40093;43.224;27.910;2023-02-17T06:36:25;101207.16;;;8.04;76.08
11523;BME280;40093;43.224;27.910;2023-02-17T06:38:52;101200.66;;;7.97;76.44
11523;BME280;40093;43.224;27.910;2023-02-17T06:41:19;101205.69;;;8.07;76.36
11523;BME280;40093;43.224;27.910;2023-02-17T06:43:46;101206.09;;;7.73;77.10
11523;BME280;40093;43.224;27.910;2023-02-17T06:46:14;101205.31;;;7.96;77.48
11523;BME280;40093;43.224;27.910;2023-02-17T06:48:41;101207.94;;;7.93;77.03
11523;BME280;40093;43.224;27.910;2023-02-17T06:51:08;101209.31;;;7.87;77.98
11523;BME280;40093;43.224;27.910;2023-02-17T06:53:35;101212.91;;;8.23;76.62
11523;BME280;40093;43.224;27.910;2023-02-17T06:56:02;101218.25;;;8.44;76.11
11523;BME280;40093;43.224;27.910;2023-02-17T06:58:29;101225.09;;;8.74;75.54
11523;BME280;40093;43.224;27.910;2023-02-17T07:00:57;101225.34;;;8.69;74.63
11523;BME280;40093;43.224;27.910;2023-02-17T07:03:25;101232.13;;;8.99;75.52
11523;BME280;40093;43.224;27.910;2023-02-17T07:05:55;101225.03;;;9.53;73.42
11523;BME280;40093;43.224;27.910;2023-02-17T07:08:23;101227.31;;;9.93;70.41
11523;BME280;40093;43.224;27.910;2023-02-17T07:10:49;101215.03;;;10.03;69.34
11523;BME280;40093;43.224;27.910;2023-02-17T07:13:16;101226.91;;;10.22;67.55
11523;BME280;40093;43.224;27.910;2023-02-17T07:15:43;101220.31;;;10.42;65.72
11523;BME280;40093;43.224;27.910;2023-02-17T07:18:10;101218.13;;;10.32;65.94
11523;BME280;40093;43.224;27.910;2023-02-17T07:20:38;101211.09;;;10.50;65.78
11523;BME280;40093;43.224;27.910;2023-02-17T07:23:05;101213.16;;;10.38;65.14
11523;BME280;40093;43.224;27.910;2023-02-17T07:25:32;101208.81;;;10.21;65.87
11523;BME280;40093;43.224;27.910;2023-02-17T07:27:59;101223.28;;;10.34;66.16
11523;BME280;40093;43.224;27.910;2023-02-17T07:30:25;101218.50;;;10.65;65.18
11523;BME280;40093;43.224;27.910;2023-02-17T07:32:52;101215.84;;;10.69;64.98
11523;BME280;40093;43.224;27.910;2023-02-17T07:35:19;101222.25;;;10.92;64.30
11523;BME280;40093;43.224;27.910;2023-02-17T07:37:47;101226.81;;;10.84;63.92
11523;BME280;40093;43.224;27.910;2023-02-17T07:40:16;101203.19;;;11.21;63.31
11523;BME280;40093;43.224;27.910;2023-02-17T07:42:42;101220.59;;;11.63;61.90
11523;BME280;40093;43.224;27.910;2023-02-17T07:45:09;101223.03;;;11.49;61.82
11523;BME280;40093;43.224;27.910;2023-02-17T07:47:36;101225.22;;;11.78;61.64
11523;BME280;40093;43.224;27.910;2023-02-17T07:50:04;101224.28;;;11.93;60.27
11523;BME280;40093;43.224;27.910;2023-02-17T07:52:31;101222.81;;;12.22;60.42
11523;BME280;40093;43.224;27.910;2023-02-17T07:54:59;101229.16;;;12.48;58.72
11523;BME280;40093;43.224;27.910;2023-02-17T07:57:26;101218.31;;;12.36;58.85
11523;BME280;40093;43.224;27.910;2023-02-17T07:59:53;101221.50;;;12.38;58.51
11523;BME280;40093;43.224;27.910;2023-02-17T08:02:20;101221.44;;;12.34;58.70
11523;BME280;40093;43.224;27.910;2023-02-17T08:04:46;101218.75;;;12.38;58.20
11523;BME280;40093;43.224;27.910;2023-02-17T08:07:13;101224.88;;;12.28;58.04
11523;BME280;40093;43.224;27.910;2023-02-17T08:09:40;101220.88;;;12.22;58.68
11523;BME280;40093;43.224;27.910;2023-02-17T08:12:26;101227.22;;;12.26;58.29
11523;BME280;40093;43.224;27.910;2023-02-17T08:15:10;101224.69;;;12.40;58.03
11523;BME280;40093;43.224;27.910;2023-02-17T08:17:38;101226.88;;;12.53;57.79
11523;BME280;40093;43.224;27.910;2023-02-17T08:20:06;101226.09;;;12.53;57.58
11523;BME280;40093;43.224;27.910;2023-02-17T08:22:33;101219.50;;;12.35;57.71
11523;BME280;40093;43.224;27.910;2023-02-17T08:25:00;101221.59;;;12.19;57.94
11523;BME280;40093;43.224;27.910;2023-02-17T08:27:28;101219.63;;;11.97;58.10
11523;BME280;40093;43.224;27.910;2023-02-17T08:29:55;101226.28;;;11.93;58.47
11523;BME280;40093;43.224;27.910;2023-02-17T08:32:22;101219.94;;;11.92;58.75
11523;BME280;40093;43.224;27.910;2023-02-17T08:34:49;101213.75;;;12.21;58.24
11523;BME280;40093;43.224;27.910;2023-02-17T08:37:16;101219.50;;;12.35;57.64
11523;BME280;40093;43.224;27.910;2023-02-17T08:39:43;101221.50;;;12.38;58.29
11523;BME280;40093;43.224;27.910;2023-02-17T08:42:10;101224.91;;;12.54;58.23
11523;BME280;40093;43.224;27.910;2023-02-17T08:44:38;101217.25;;;12.70;58.34
11523;BME280;40093;43.224;27.910;2023-02-17T08:47:05;101217.38;;;12.77;57.82
11523;BME280;40093;43.224;27.910;2023-02-17T08:49:33;101229.38;;;12.88;57.97
11523;BME280;40093;43.224;27.910;2023-02-17T08:52:00;101227.41;;;12.88;57.39
11523;BME280;40093;43.224;27.910;2023-02-17T08:54:27;101214.91;;;12.72;54.91
11523;BME280;40093;43.224;27.910;2023-02-17T08:56:54;101213.41;;;12.48;55.58
11523;BME280;40093;43.224;27.910;2023-02-17T08:59:22;101228.25;;;12.66;55.54
11523;BME280;40093;43.224;27.910;2023-02-17T09:01:51;101214.19;;;12.49;55.67
11523;BME280;40093;43.224;27.910;2023-02-17T09:04:18;101221.41;;;12.31;55.87
11523;BME280;40093;43.224;27.910;2023-02-17T09:06:46;101217.84;;;12.31;56.00
11523;BME280;40093;43.224;27.910;2023-02-17T09:09:16;101219.84;;;12.33;56.51
11523;BME280;40093;43.224;27.910;2023-02-17T09:11:44;101220.16;;;12.51;55.78
11523;BME280;40093;43.224;27.910;2023-02-17T09:14:11;101231.22;;;12.54;56.13
11523;BME280;40093;43.224;27.910;2023-02-17T09:16:38;101226.81;;;12.50;55.68
11523;BME280;40093;43.224;27.910;2023-02-17T09:19:06;101221.94;;;12.66;55.41
11523;BME280;40093;43.224;27.910;2023-02-17T09:21:33;101223.31;;;12.79;54.93
11523;BME280;40093;43.224;27.910;2023-02-17T09:24:00;101225.97;;;12.98;54.76
11523;BME280;40093;43.224;27.910;2023-02-17T09:26:27;101218.53;;;12.76;55.10
11523;BME280;40093;43.224;27.910;2023-02-17T09:28:54;101218.59;;;12.79;55.15
11523;BME280;40093;43.224;27.910;2023-02-17T09:31:23;101219.63;;;12.94;55.36
11523;BME280;40093;43.224;27.910;2023-02-17T09:33:51;101215.53;;;13.14;55.00
11523;BME280;40093;43.224;27.910;2023-02-17T09:36:21;101210.75;;;13.11;54.37
11523;BME280;40093;43.224;27.910;2023-02-17T09:38:54;101213.97;;;12.87;54.97
11523;BME280;40093;43.224;27.910;2023-02-17T09:41:23;101225.97;;;12.98;55.60
11523;BME280;40093;43.224;27.910;2023-02-17T09:43:52;101211.38;;;13.27;55.03
11523;BME280;40093;43.224;27.910;2023-02-17T09:46:24;101217.72;;;13.31;55.14
11523;BME280;40093;43.224;27.910;2023-02-17T09:48:55;101206.88;;;13.48;54.41
11523;BME280;40093;43.224;27.910;2023-02-17T09:51:28;101210.59;;;13.30;54.26
11523;BME280;40093;43.224;27.910;2023-02-17T09:54:03;101208.09;;;13.18;54.62
11523;BME280;40093;43.224;27.910;2023-02-17T09:56:34;101198.16;;;12.84;55.83
11523;BME280;40093;43.224;27.910;2023-02-17T09:59:07;101195.31;;;12.80;56.19
11523;BME280;40093;43.224;27.910;2023-02-17T10:01:40;101195.69;;;12.79;56.81
11523;BME280;40093;43.224;27.910;2023-02-17T10:04:11;101204.81;;;13.09;56.04
11523;BME280;40093;43.224;27.910;2023-02-17T10:06:46;101204.25;;;13.26;55.86
11523;BME280;40093;43.224;27.910;2023-02-17T10:09:18;101201.03;;;13.24;55.55
11523;BME280;40093;43.224;27.910;2023-02-17T10:11:52;101197.44;;;13.20;55.94
11523;BME280;40093;43.224;27.910;2023-02-17T10:14:27;101187.31;;;13.31;55.85
11523;BME280;40093;43.224;27.910;2023-02-17T10:17:00;101195.03;;;13.48;55.41
11523;BME280;40093;43.224;27.910;2023-02-17T10:19:31;101190.81;;;13.61;55.64
11523;BME280;40093;43.224;27.910;2023-02-17T10:22:06;101184.16;;;13.65;55.28
11523;BME280;40093;43.224;27.910;2023-02-17T10:24:34;101180.88;;;13.56;55.31
11523;BME280;40093;43.224;27.910;2023-02-17T10:27:23;101176.81;;;13.43;55.52
11523;BME280;40093;43.224;27.910;2023-02-17T10:30:03;101172.22;;;13.58;55.41
11523;BME280;40093;43.224;27.910;2023-02-17T10:32:41;101160.56;;;13.78;55.14
11523;BME280;40093;43.224;27.910;2023-02-17T10:35:13;101161.06;;;13.91;54.94
11523;BME280;40093;43.224;27.910;2023-02-17T10:37:46;101154.41;;;13.99;54.74
11523;BME280;40093;43.224;27.910;2023-02-17T10:40:17;101152.88;;;14.05;54.13
11523;BME280;40093;43.224;27.910;2023-02-17T10:42:45;101141.09;;;14.15;54.05
11523;BME280;40093;43.224;27.910;2023-02-17T10:45:22;101148.22;;;14.16;53.92
11523;BME280;40093;43.224;27.910;2023-02-17T10:47:55;101135.41;;;13.94;54.55
11523;BME280;40093;43.224;27.910;2023-02-17T10:50:24;101142.44;;;13.84;54.84
11523;BME280;40093;43.224;27.910;2023-02-17T10:52:53;101146.53;;;14.01;54.44
11523;BME280;40093;43.224;27.910;2023-02-17T10:55:28;101144.94;;;14.03;53.58
11523;BME280;40093;43.224;27.910;2023-02-17T10:58:02;101133.91;;;14.07;53.00
11523;BME280;40093;43.224;27.910;2023-02-17T11:00:31;101136.41;;;14.19;52.94
11523;BME280;40093;43.224;27.910;2023-02-17T11:02:58;101137.34;;;14.40;52.65
11523;BME280;40093;43.224;27.910;2023-02-17T11:05:27;101125.97;;;14.56;51.99
11523;BME280;40093;43.224;27.910;2023-02-17T11:07:59;101120.03;;;14.54;51.73
11523;BME280;40093;43.224;27.910;2023-02-17T11:10:29;101131.19;;;14.68;51.13
11523;BME280;40093;43.224;27.910;2023-02-17T11:12:57;101134.28;;;14.56;50.83
11523;BME280;40093;43.224;27.910;2023-02-17T11:15:27;101123.59;;;14.58;50.71
11523;BME280;40093;43.224;27.910;2023-02-17T11:17:55;101115.69;;;14.60;50.85
11523;BME280;40093;43.224;27.910;2023-02-17T11:20:28;101121.63;;;14.62;50.76
11523;BME280;40093;43.224;27.910;2023-02-17T11:23:07;101121.28;;;14.67;50.81
11523;BME280;40093;43.224;27.910;2023-02-17T11:26:07;101117.31;;;14.64;50.53
11523;BME280;40093;43.224;27.910;2023-02-17T11:28:34;101101.81;;;14.53;49.87
11523;BME280;40093;43.224;27.910;2023-02-17T11:31:02;101110.38;;;14.27;50.40
11523;BME280;40093;43.224;27.910;2023-02-17T11:33:32;101108.06;;;14.36;50.66
11523;BME280;40093;43.224;27.910;2023-02-17T11:36:00;101110.13;;;14.56;50.47
11523;BME280;40093;43.224;27.910;2023-02-17T11:38:40;101105.03;;;14.65;50.06
11523;BME280;40093;43.224;27.910;2023-02-17T11:41:08;101110.66;;;14.76;50.21
11523;BME280;40093;43.224;27.910;2023-02-17T11:43:36;101110.66;;;14.83;49.97
11523;BME280;40093;43.224;27.910;2023-02-17T11:46:13;101100.41;;;14.93;49.36
11523;BME280;40093;43.224;27.910;2023-02-17T11:49:12;101111.84;;;14.82;49.12
11523;BME280;40093;43.224;27.910;2023-02-17T11:51:52;101107.19;;;14.99;48.75
11523;BME280;40093;43.224;27.910;2023-02-17T11:54:27;101101.63;;;14.99;48.13
11523;BME280;40093;43.224;27.910;2023-02-17T11:57:04;101087.84;;;15.24;47.73
11523;BME280;40093;43.224;27.910;2023-02-17T11:59:43;101088.63;;;15.24;47.59
11523;BME280;40093;43.224;27.910;2023-02-17T12:02:17;101089.06;;;15.33;47.54
11523;BME280;40093;43.224;27.910;2023-02-17T12:05:08;101091.88;;;15.40;47.11
11523;BME280;40093;43.224;27.910;2023-02-17T12:07:51;101081.53;;;15.37;47.20
11523;BME280;40093;43.224;27.910;2023-02-17T12:10:24;101084.34;;;15.48;47.03
11523;BME280;40093;43.224;27.910;2023-02-17T12:13:04;101088.25;;;15.29;47.33
11523;BME280;40093;43.224;27.910;2023-02-17T12:15:48;101082.72;;;15.36;46.84
11523;BME280;40093;43.224;27.910;2023-02-17T12:18:32;101083.13;;;15.42;46.73
11523;BME280;40093;43.224;27.910;2023-02-17T12:21:08;101082.31;;;15.31;45.85
11523;BME280;40093;43.224;27.910;2023-02-17T12:23:56;101078.34;;;15.25;45.63
11523;BME280;40093;43.224;27.910;2023-02-17T12:26:35;101073.97;;;15.27;45.97
11523;BME280;40093;43.224;27.910;2023-02-17T12:29:18;101069.22;;;15.28;45.42
11523;BME280;40093;43.224;27.910;2023-02-17T12:31:58;101075.94;;;15.27;45.63
11523;BME280;40093;43.224;27.910;2023-02-17T12:34:30;101068.03;;;15.18;45.65
11523;BME280;40093;43.224;27.910;2023-02-17T12:36:59;101075.19;;;15.30;45.49
11523;BME280;40093;43.224;27.910;2023-02-17T12:39:30;101080.38;;;15.49;45.33
11523;BME280;40093;43.224;27.910;2023-02-17T12:42:04;101071.25;;;15.52;45.15
11523;BME280;40093;43.224;27.910;2023-02-17T12:44:36;101067.31;;;15.49;45.51
11523;BME280;40093;43.224;27.910;2023-02-17T12:47:09;101073.63;;;15.39;45.54
11523;BME280;40093;43.224;27.910;2023-02-17T12:49:42;101079.56;;;15.38;45.99
11523;BME280;40093;43.224;27.910;2023-02-17T12:52:15;101079.94;;;15.29;45.70
11523;BME280;40093;43.224;27.910;2023-02-17T12:54:47;101078.00;;;15.37;44.63
11523;BME280;40093;43.224;27.910;2023-02-17T12:57:19;101079.56;;;15.41;44.34
11523;BME280;40093;43.224;27.910;2023-02-17T12:59:49;101082.34;;;15.34;44.37
11523;BME280;40093;43.224;27.910;2023-02-17T13:02:20;101085.50;;;15.36;43.67